sensor_id;sensor_type;location;lat;lon;timestamp;P1;durP1;ratioP1;P2;durP2;ratioP2
24325;SDS011;12448;45.532;5.290;2022-07-29T00:01:34;3.90;;;1.63;;
24325;SDS011;12448;45.532;5.290;2022-07-29T00:03:59;4.28;;;1.50;;
24325;SDS011;12448;45.532;5.290;2022-07-29T00:06:25;3.80;;;1.60;;
24325;SDS011;12448;45.532;5.290;2022-07-29T00:08:50;4.97;;;1.52;;
24325;SDS011;12448;45.532;5.290;2022-07-29T00:11:16;3.88;;;1.50;;
24325;SDS011;12448;45.532;5.290;2022-07-29T00:13:42;4.95;;;1.30;;
24325;SDS011;12448;45.532;5.290;2022-07-29T00:16:07;1.73;;;1.25;;
24325;SDS011;12448;45.532;5.290;2022-07-29T00:18:33;6.18;;;1.30;;
24325;SDS011;12448;45.532;5.290;2022-07-29T00:20:59;4.85;;;1.50;;
24325;SDS011;12448;45.532;5.290;2022-07-29T00:23:24;2.42;;;1.40;;
24325;SDS011;12448;45.532;5.290;2022-07-29T00:25:50;3.85;;;1.33;;
24325;SDS011;12448;45.532;5.290;2022-07-29T00:28:16;2.65;;;1.38;;
24325;SDS011;12448;45.532;5.290;2022-07-29T00:30:41;5.78;;;1.73;;
24325;SDS011;12448;45.532;5.290;2022-07-29T00:33:08;4.80;;;1.50;;
24325;SDS011;12448;45.532;5.290;2022-07-29T00:35:34;3.20;;;1.42;;
24325;SDS011;12448;45.532;5.290;2022-07-29T00:38:10;5.38;;;1.45;;
24325;SDS011;12448;45.532;5.290;2022-07-29T00:40:36;4.93;;;1.92;;
24325;SDS011;12448;45.532;5.290;2022-07-29T00:43:02;1.98;;;1.15;;
24325;SDS011;12448;45.532;5.290;2022-07-29T00:45:28;4.70;;;1.50;;
24325;SDS011;12448;45.532;5.290;2022-07-29T00:47:54;4.35;;;1.55;;
24325;SDS011;12448;45.532;5.290;2022-07-29T00:50:20;3.78;;;1.40;;
24325;SDS011;12448;45.532;5.290;2022-07-29T00:52:46;4.88;;;1.58;;
24325;SDS011;12448;45.532;5.290;2022-07-29T00:55:13;4.63;;;1.60;;
24325;SDS011;12448;45.532;5.290;2022-07-29T00:57:41;5.47;;;1.73;;
24325;SDS011;12448;45.532;5.290;2022-07-29T01:00:09;2.85;;;1.42;;
24325;SDS011;12448;45.532;5.290;2022-07-29T01:02:37;2.63;;;1.30;;
24325;SDS011;12448;45.532;5.290;2022-07-29T01:05:03;3.17;;;1.60;;
24325;SDS011;12448;45.532;5.290;2022-07-29T01:07:31;2.17;;;1.48;;
24325;SDS011;12448;45.532;5.290;2022-07-29T01:10:02;5.75;;;1.58;;
24325;SDS011;12448;45.532;5.290;2022-07-29T01:12:30;4.03;;;1.40;;
24325;SDS011;12448;45.532;5.290;2022-07-29T01:14:58;3.38;;;1.42;;
24325;SDS011;12448;45.532;5.290;2022-07-29T01:23:19;9.20;;;1.55;;
24325;SDS011;12448;45.532;5.290;2022-07-29T01:26:04;7.72;;;1.70;;
24325;SDS011;12448;45.532;5.290;2022-07-29T01:31:48;3.20;;;1.50;;
24325;SDS011;12448;45.532;5.290;2022-07-29T01:34:44;3.78;;;1.50;;
24325;SDS011;12448;45.532;5.290;2022-07-29T01:37:18;2.92;;;1.42;;
24325;SDS011;12448;45.532;5.290;2022-07-29T01:40:10;4.32;;;1.50;;
24325;SDS011;12448;45.532;5.290;2022-07-29T01:42:58;7.95;;;1.70;;
24325;SDS011;12448;45.532;5.290;2022-07-29T01:45:31;4.25;;;1.92;;
24325;SDS011;12448;45.532;5.290;2022-07-29T01:48:16;2.55;;;1.50;;
24325;SDS011;12448;45.532;5.290;2022-07-29T01:50:53;1.98;;;1.60;;
24325;SDS011;12448;45.532;5.290;2022-07-29T01:53:33;3.53;;;1.70;;
24325;SDS011;12448;45.532;5.290;2022-07-29T01:56:02;5.35;;;1.50;;
24325;SDS011;12448;45.532;5.290;2022-07-29T01:58:29;1.80;;;1.33;;
24325;SDS011;12448;45.532;5.290;2022-07-29T02:00:58;2.67;;;1.60;;
24325;SDS011;12448;45.532;5.290;2022-07-29T02:03:27;6.32;;;1.63;;
24325;SDS011;12448;45.532;5.290;2022-07-29T02:05:55;4.47;;;1.58;;
24325;SDS011;12448;45.532;5.290;2022-07-29T02:08:22;2.53;;;1.50;;
24325;SDS011;12448;45.532;5.290;2022-07-29T02:10:49;2.83;;;1.35;;
24325;SDS011;12448;45.532;5.290;2022-07-29T02:13:17;4.03;;;1.60;;
24325;SDS011;12448;45.532;5.290;2022-07-29T02:15:45;2.05;;;1.38;;
24325;SDS011;12448;45.532;5.290;2022-07-29T02:18:17;3.95;;;1.73;;
24325;SDS011;12448;45.532;5.290;2022-07-29T02:20:47;5.93;;;1.30;;
24325;SDS011;12448;45.532;5.290;2022-07-29T02:23:16;4.03;;;1.33;;
24325;SDS011;12448;45.532;5.290;2022-07-29T02:25:46;5.72;;;1.48;;
24325;SDS011;12448;45.532;5.290;2022-07-29T02:28:14;2.13;;;1.65;;
24325;SDS011;12448;45.532;5.290;2022-07-29T02:30:41;6.07;;;1.40;;
24325;SDS011;12448;45.532;5.290;2022-07-29T02:33:08;7.38;;;1.60;;
24325;SDS011;12448;45.532;5.290;2022-07-29T02:35:37;3.50;;;1.40;;
24325;SDS011;12448;45.532;5.290;2022-07-29T02:38:05;3.40;;;1.60;;
24325;SDS011;12448;45.532;5.290;2022-07-29T02:40:49;4.97;;;1.73;;
24325;SDS011;12448;45.532;5.290;2022-07-29T02:43:16;4.85;;;1.50;;
24325;SDS011;12448;45.532;5.290;2022-07-29T02:45:43;5.85;;;2.13;;
24325;SDS011;12448;45.532;5.290;2022-07-29T02:48:13;3.22;;;1.45;;
24325;SDS011;12448;45.532;5.290;2022-07-29T02:50:43;4.47;;;1.50;;
24325;SDS011;12448;45.532;5.290;2022-07-29T02:53:18;2.08;;;1.58;;
24325;SDS011;12448;45.532;5.290;2022-07-29T02:55:50;3.90;;;1.73;;
24325;SDS011;12448;45.532;5.290;2022-07-29T02:58:32;2.20;;;1.63;;
24325;SDS011;12448;45.532;5.290;2022-07-29T03:01:15;7.50;;;1.40;;
24325;SDS011;12448;45.532;5.290;2022-07-29T03:03:45;4.93;;;1.80;;
24325;SDS011;12448;45.532;5.290;2022-07-29T03:06:13;5.38;;;2.08;;
24325;SDS011;12448;45.532;5.290;2022-07-29T03:08:40;4.50;;;1.70;;
24325;SDS011;12448;45.532;5.290;2022-07-29T03:11:07;4.78;;;1.55;;
24325;SDS011;12448;45.532;5.290;2022-07-29T03:13:36;2.75;;;1.60;;
24325;SDS011;12448;45.532;5.290;2022-07-29T03:16:03;2.83;;;1.80;;
24325;SDS011;12448;45.532;5.290;2022-07-29T03:18:30;7.28;;;1.90;;
24325;SDS011;12448;45.532;5.290;2022-07-29T03:20:56;2.60;;;1.35;;
24325;SDS011;12448;45.532;5.290;2022-07-29T03:23:22;4.30;;;1.60;;
24325;SDS011;12448;45.532;5.290;2022-07-29T03:25:49;10.65;;;2.00;;
24325;SDS011;12448;45.532;5.290;2022-07-29T03:28:15;2.60;;;1.42;;
24325;SDS011;12448;45.532;5.290;2022-07-29T03:30:41;2.35;;;1.48;;
24325;SDS011;12448;45.532;5.290;2022-07-29T03:33:06;4.45;;;1.60;;
24325;SDS011;12448;45.532;5.290;2022-07-29T03:35:32;6.53;;;1.92;;
24325;SDS011;12448;45.532;5.290;2022-07-29T03:37:58;2.33;;;1.80;;
24325;SDS011;12448;45.532;5.290;2022-07-29T03:40:26;6.35;;;1.67;;
24325;SDS011;12448;45.532;5.290;2022-07-29T03:42:57;3.40;;;1.50;;
24325;SDS011;12448;45.532;5.290;2022-07-29T03:45:25;7.40;;;1.90;;
24325;SDS011;12448;45.532;5.290;2022-07-29T03:47:53;4.63;;;1.40;;
24325;SDS011;12448;45.532;5.290;2022-07-29T03:50:24;5.28;;;1.52;;
24325;SDS011;12448;45.532;5.290;2022-07-29T03:52:50;5.45;;;1.60;;
24325;SDS011;12448;45.532;5.290;2022-07-29T03:55:16;5.07;;;1.80;;
24325;SDS011;12448;45.532;5.290;2022-07-29T03:57:42;2.05;;;1.55;;
24325;SDS011;12448;45.532;5.290;2022-07-29T04:00:10;4.05;;;1.80;;
24325;SDS011;12448;45.532;5.290;2022-07-29T04:02:37;5.25;;;1.70;;
24325;SDS011;12448;45.532;5.290;2022-07-29T04:05:04;3.78;;;1.60;;
24325;SDS011;12448;45.532;5.290;2022-07-29T04:07:36;3.20;;;1.80;;
24325;SDS011;12448;45.532;5.290;2022-07-29T04:10:02;4.80;;;1.70;;
24325;SDS011;12448;45.532;5.290;2022-07-29T04:12:28;5.40;;;1.95;;
24325;SDS011;12448;45.532;5.290;2022-07-29T04:14:53;3.15;;;1.65;;
24325;SDS011;12448;45.532;5.290;2022-07-29T04:17:19;3.83;;;1.73;;
24325;SDS011;12448;45.532;5.290;2022-07-29T04:19:45;6.95;;;1.90;;
24325;SDS011;12448;45.532;5.290;2022-07-29T04:22:10;1.80;;;1.50;;
24325;SDS011;12448;45.532;5.290;2022-07-29T04:24:36;4.28;;;1.77;;
24325;SDS011;12448;45.532;5.290;2022-07-29T04:27:02;6.78;;;2.00;;
24325;SDS011;12448;45.532;5.290;2022-07-29T04:29:32;5.15;;;1.55;;
24325;SDS011;12448;45.532;5.290;2022-07-29T04:31:58;4.55;;;1.70;;
24325;SDS011;12448;45.532;5.290;2022-07-29T04:34:24;3.20;;;1.75;;
24325;SDS011;12448;45.532;5.290;2022-07-29T04:36:50;5.80;;;2.10;;
24325;SDS011;12448;45.532;5.290;2022-07-29T04:39:15;3.67;;;2.10;;
24325;SDS011;12448;45.532;5.290;2022-07-29T04:41:43;3.70;;;1.70;;
24325;SDS011;12448;45.532;5.290;2022-07-29T04:44:08;4.32;;;1.85;;
24325;SDS011;12448;45.532;5.290;2022-07-29T04:46:34;4.40;;;1.98;;
24325;SDS011;12448;45.532;5.290;2022-07-29T04:49:00;6.82;;;2.05;;
24325;SDS011;12448;45.532;5.290;2022-07-29T04:51:27;3.67;;;1.98;;
24325;SDS011;12448;45.532;5.290;2022-07-29T04:53:52;5.50;;;1.90;;
24325;SDS011;12448;45.532;5.290;2022-07-29T04:56:21;7.65;;;2.70;;
24325;SDS011;12448;45.532;5.290;2022-07-29T04:58:47;3.88;;;2.08;;
24325;SDS011;12448;45.532;5.290;2022-07-29T05:01:13;3.40;;;1.88;;
24325;SDS011;12448;45.532;5.290;2022-07-29T05:03:39;5.15;;;1.90;;
24325;SDS011;12448;45.532;5.290;2022-07-29T05:06:05;3.58;;;2.28;;
24325;SDS011;12448;45.532;5.290;2022-07-29T05:08:31;9.55;;;1.88;;
24325;SDS011;12448;45.532;5.290;2022-07-29T05:10:57;6.28;;;1.90;;
24325;SDS011;12448;45.532;5.290;2022-07-29T05:13:22;4.40;;;2.10;;
24325;SDS011;12448;45.532;5.290;2022-07-29T05:15:48;3.42;;;1.92;;
24325;SDS011;12448;45.532;5.290;2022-07-29T05:18:14;6.88;;;1.85;;
24325;SDS011;12448;45.532;5.290;2022-07-29T05:20:40;6.40;;;2.15;;
24325;SDS011;12448;45.532;5.290;2022-07-29T05:23:06;4.40;;;1.85;;
24325;SDS011;12448;45.532;5.290;2022-07-29T05:25:32;3.28;;;1.67;;
24325;SDS011;12448;45.532;5.290;2022-07-29T05:27:58;3.72;;;2.05;;
24325;SDS011;12448;45.532;5.290;2022-07-29T05:30:23;5.90;;;2.08;;
24325;SDS011;12448;45.532;5.290;2022-07-29T05:32:49;5.20;;;2.08;;
24325;SDS011;12448;45.532;5.290;2022-07-29T05:35:15;5.88;;;1.80;;
24325;SDS011;12448;45.532;5.290;2022-07-29T05:37:41;3.95;;;1.90;;
24325;SDS011;12448;45.532;5.290;2022-07-29T05:40:07;3.67;;;1.60;;
24325;SDS011;12448;45.532;5.290;2022-07-29T05:42:33;5.97;;;1.83;;
24325;SDS011;12448;45.532;5.290;2022-07-29T05:44:59;7.03;;;2.30;;
24325;SDS011;12448;45.532;5.290;2022-07-29T05:47:25;3.80;;;1.80;;
24325;SDS011;12448;45.532;5.290;2022-07-29T05:49:51;4.85;;;2.03;;
24325;SDS011;12448;45.532;5.290;2022-07-29T05:52:17;6.55;;;2.47;;
24325;SDS011;12448;45.532;5.290;2022-07-29T05:54:43;6.68;;;2.10;;
24325;SDS011;12448;45.532;5.290;2022-07-29T05:57:19;5.88;;;2.10;;
24325;SDS011;12448;45.532;5.290;2022-07-29T05:59:46;7.35;;;2.08;;
24325;SDS011;12448;45.532;5.290;2022-07-29T06:02:12;4.35;;;2.03;;
24325;SDS011;12448;45.532;5.290;2022-07-29T06:04:38;4.60;;;1.95;;
24325;SDS011;12448;45.532;5.290;2022-07-29T06:07:04;11.73;;;1.98;;
24325;SDS011;12448;45.532;5.290;2022-07-29T06:09:30;11.68;;;2.97;;
24325;SDS011;12448;45.532;5.290;2022-07-29T06:11:56;9.98;;;2.70;;
24325;SDS011;12448;45.532;5.290;2022-07-29T06:14:22;9.02;;;2.20;;
24325;SDS011;12448;45.532;5.290;2022-07-29T06:16:48;6.50;;;2.83;;
24325;SDS011;12448;45.532;5.290;2022-07-29T06:19:14;5.90;;;2.70;;
24325;SDS011;12448;45.532;5.290;2022-07-29T06:21:43;7.88;;;2.60;;
24325;SDS011;12448;45.532;5.290;2022-07-29T06:24:10;9.88;;;2.72;;
24325;SDS011;12448;45.532;5.290;2022-07-29T06:26:37;7.50;;;2.70;;
24325;SDS011;12448;45.532;5.290;2022-07-29T06:29:03;5.47;;;2.22;;
24325;SDS011;12448;45.532;5.290;2022-07-29T06:31:29;4.57;;;2.78;;
24325;SDS011;12448;45.532;5.290;2022-07-29T06:33:57;7.70;;;2.85;;
24325;SDS011;12448;45.532;5.290;2022-07-29T06:36:23;12.07;;;3.38;;
24325;SDS011;12448;45.532;5.290;2022-07-29T06:38:49;9.70;;;3.50;;
24325;SDS011;12448;45.532;5.290;2022-07-29T06:41:14;12.50;;;3.38;;
24325;SDS011;12448;45.532;5.290;2022-07-29T06:43:42;14.98;;;4.57;;
24325;SDS011;12448;45.532;5.290;2022-07-29T06:46:10;7.28;;;3.30;;
24325;SDS011;12448;45.532;5.290;2022-07-29T06:48:43;15.25;;;3.05;;
24325;SDS011;12448;45.532;5.290;2022-07-29T06:51:09;9.93;;;3.22;;
24325;SDS011;12448;45.532;5.290;2022-07-29T06:53:36;6.88;;;3.45;;
24325;SDS011;12448;45.532;5.290;2022-07-29T06:56:03;4.30;;;3.50;;
24325;SDS011;12448;45.532;5.290;2022-07-29T06:58:30;7.05;;;3.20;;
24325;SDS011;12448;45.532;5.290;2022-07-29T07:00:57;6.10;;;3.13;;
24325;SDS011;12448;45.532;5.290;2022-07-29T07:03:23;7.93;;;3.28;;
24325;SDS011;12448;45.532;5.290;2022-07-29T07:05:49;8.88;;;3.10;;
24325;SDS011;12448;45.532;5.290;2022-07-29T07:08:16;7.53;;;2.92;;
24325;SDS011;12448;45.532;5.290;2022-07-29T07:10:42;13.00;;;3.22;;
24325;SDS011;12448;45.532;5.290;2022-07-29T07:13:08;11.02;;;3.33;;
24325;SDS011;12448;45.532;5.290;2022-07-29T07:15:37;10.63;;;3.35;;
24325;SDS011;12448;45.532;5.290;2022-07-29T07:18:03;7.95;;;3.35;;
24325;SDS011;12448;45.532;5.290;2022-07-29T07:20:30;10.25;;;3.38;;
24325;SDS011;12448;45.532;5.290;2022-07-29T07:22:56;8.13;;;2.97;;
24325;SDS011;12448;45.532;5.290;2022-07-29T07:25:22;47.20;;;6.13;;
24325;SDS011;12448;45.532;5.290;2022-07-29T07:27:48;10.93;;;4.45;;
24325;SDS011;12448;45.532;5.290;2022-07-29T07:30:13;8.10;;;3.72;;
24325;SDS011;12448;45.532;5.290;2022-07-29T07:32:39;7.00;;;3.72;;
24325;SDS011;12448;45.532;5.290;2022-07-29T07:35:05;10.57;;;3.92;;
24325;SDS011;12448;45.532;5.290;2022-07-29T07:37:32;31.33;;;5.65;;
24325;SDS011;12448;45.532;5.290;2022-07-29T07:40:25;12.20;;;3.90;;
24325;SDS011;12448;45.532;5.290;2022-07-29T07:43:15;37.15;;;7.07;;
24325;SDS011;12448;45.532;5.290;2022-07-29T07:46:06;9.15;;;3.53;;
24325;SDS011;12448;45.532;5.290;2022-07-29T07:49:24;12.02;;;3.47;;
24325;SDS011;12448;45.532;5.290;2022-07-29T07:51:50;8.55;;;3.38;;
24325;SDS011;12448;45.532;5.290;2022-07-29T07:54:17;5.68;;;3.50;;
24325;SDS011;12448;45.532;5.290;2022-07-29T07:56:43;5.22;;;3.30;;
24325;SDS011;12448;45.532;5.290;2022-07-29T07:59:08;4.53;;;3.40;;
24325;SDS011;12448;45.532;5.290;2022-07-29T08:01:34;11.05;;;3.70;;
24325;SDS011;12448;45.532;5.290;2022-07-29T08:04:00;6.93;;;3.38;;
24325;SDS011;12448;45.532;5.290;2022-07-29T08:06:25;7.05;;;3.55;;
24325;SDS011;12448;45.532;5.290;2022-07-29T08:08:51;10.10;;;3.90;;
24325;SDS011;12448;45.532;5.290;2022-07-29T08:11:17;17.27;;;3.70;;
24325;SDS011;12448;45.532;5.290;2022-07-29T08:13:42;7.07;;;3.53;;
24325;SDS011;12448;45.532;5.290;2022-07-29T08:16:08;16.35;;;4.50;;
24325;SDS011;12448;45.532;5.290;2022-07-29T08:18:38;24.83;;;4.80;;
24325;SDS011;12448;45.532;5.290;2022-07-29T08:21:08;7.20;;;3.75;;
24325;SDS011;12448;45.532;5.290;2022-07-29T08:23:51;10.40;;;3.97;;
24325;SDS011;12448;45.532;5.290;2022-07-29T08:26:40;7.82;;;3.50;;
24325;SDS011;12448;45.532;5.290;2022-07-29T08:29:07;8.57;;;3.90;;
24325;SDS011;12448;45.532;5.290;2022-07-29T08:31:33;12.35;;;3.78;;
24325;SDS011;12448;45.532;5.290;2022-07-29T08:33:58;7.47;;;4.03;;
24325;SDS011;12448;45.532;5.290;2022-07-29T08:36:25;8.13;;;3.80;;
24325;SDS011;12448;45.532;5.290;2022-07-29T08:38:51;8.93;;;4.10;;
24325;SDS011;12448;45.532;5.290;2022-07-29T08:41:18;9.50;;;4.15;;
24325;SDS011;12448;45.532;5.290;2022-07-29T08:43:45;5.57;;;3.65;;
24325;SDS011;12448;45.532;5.290;2022-07-29T08:46:11;12.40;;;4.30;;
24325;SDS011;12448;45.532;5.290;2022-07-29T08:48:38;15.38;;;4.80;;
24325;SDS011;12448;45.532;5.290;2022-07-29T08:51:06;14.23;;;5.75;;
24325;SDS011;12448;45.532;5.290;2022-07-29T08:53:33;12.32;;;6.07;;
24325;SDS011;12448;45.532;5.290;2022-07-29T08:56:03;12.88;;;4.93;;
24325;SDS011;12448;45.532;5.290;2022-07-29T08:58:38;6.78;;;3.92;;
24325;SDS011;12448;45.532;5.290;2022-07-29T09:01:04;7.82;;;4.22;;
24325;SDS011;12448;45.532;5.290;2022-07-29T09:03:39;5.68;;;4.05;;
24325;SDS011;12448;45.532;5.290;2022-07-29T09:06:06;8.50;;;3.80;;
24325;SDS011;12448;45.532;5.290;2022-07-29T09:08:33;8.55;;;4.00;;
24325;SDS011;12448;45.532;5.290;2022-07-29T09:11:00;6.82;;;3.85;;
24325;SDS011;12448;45.532;5.290;2022-07-29T09:13:26;8.75;;;4.05;;
24325;SDS011;12448;45.532;5.290;2022-07-29T09:15:52;7.85;;;4.30;;
24325;SDS011;12448;45.532;5.290;2022-07-29T09:18:37;7.55;;;4.13;;
24325;SDS011;12448;45.532;5.290;2022-07-29T09:21:08;10.60;;;3.90;;
24325;SDS011;12448;45.532;5.290;2022-07-29T09:24:08;7.68;;;4.35;;
24325;SDS011;12448;45.532;5.290;2022-07-29T09:26:35;12.48;;;4.38;;
24325;SDS011;12448;45.532;5.290;2022-07-29T09:29:09;7.25;;;3.72;;
24325;SDS011;12448;45.532;5.290;2022-07-29T09:31:41;10.05;;;4.18;;
24325;SDS011;12448;45.532;5.290;2022-07-29T09:34:09;10.93;;;4.07;;
24325;SDS011;12448;45.532;5.290;2022-07-29T09:36:45;10.38;;;5.07;;
24325;SDS011;12448;45.532;5.290;2022-07-29T09:39:13;8.88;;;3.95;;
24325;SDS011;12448;45.532;5.290;2022-07-29T09:41:51;9.75;;;3.70;;
24325;SDS011;12448;45.532;5.290;2022-07-29T09:44:18;9.90;;;4.22;;
24325;SDS011;12448;45.532;5.290;2022-07-29T09:49:23;12.02;;;4.47;;
24325;SDS011;12448;45.532;5.290;2022-07-29T09:52:23;11.35;;;4.03;;
24325;SDS011;12448;45.532;5.290;2022-07-29T09:54:41;8.38;;;3.60;;
24325;SDS011;12448;45.532;5.290;2022-07-29T09:57:08;13.07;;;4.15;;
24325;SDS011;12448;45.532;5.290;2022-07-29T10:00:00;6.97;;;3.88;;
24325;SDS011;12448;45.532;5.290;2022-07-29T10:02:30;10.70;;;4.03;;
24325;SDS011;12448;45.532;5.290;2022-07-29T10:04:57;12.82;;;4.07;;
24325;SDS011;12448;45.532;5.290;2022-07-29T10:07:23;10.88;;;4.03;;
24325;SDS011;12448;45.532;5.290;2022-07-29T10:09:53;7.47;;;3.95;;
24325;SDS011;12448;45.532;5.290;2022-07-29T10:12:22;7.40;;;3.90;;
24325;SDS011;12448;45.532;5.290;2022-07-29T10:14:49;7.60;;;3.65;;
24325;SDS011;12448;45.532;5.290;2022-07-29T10:17:16;9.63;;;3.97;;
24325;SDS011;12448;45.532;5.290;2022-07-29T10:19:43;7.82;;;4.05;;
24325;SDS011;12448;45.532;5.290;2022-07-29T10:22:09;6.22;;;4.13;;
24325;SDS011;12448;45.532;5.290;2022-07-29T10:24:35;5.28;;;3.53;;
24325;SDS011;12448;45.532;5.290;2022-07-29T10:27:04;8.52;;;3.63;;
24325;SDS011;12448;45.532;5.290;2022-07-29T10:29:33;7.07;;;3.70;;
24325;SDS011;12448;45.532;5.290;2022-07-29T10:35:00;5.68;;;3.13;;
24325;SDS011;12448;45.532;5.290;2022-07-29T10:38:04;8.95;;;3.88;;
24325;SDS011;12448;45.532;5.290;2022-07-29T10:41:02;9.60;;;3.42;;
24325;SDS011;12448;45.532;5.290;2022-07-29T10:44:12;7.88;;;3.50;;
24325;SDS011;12448;45.532;5.290;2022-07-29T10:46:51;4.32;;;3.10;;
24325;SDS011;12448;45.532;5.290;2022-07-29T10:49:23;4.97;;;3.50;;
24325;SDS011;12448;45.532;5.290;2022-07-29T10:59:49;6.50;;;3.30;;
24325;SDS011;12448;45.532;5.290;2022-07-29T11:02:41;6.53;;;3.22;;
24325;SDS011;12448;45.532;5.290;2022-07-29T11:05:16;4.57;;;3.22;;
24325;SDS011;12448;45.532;5.290;2022-07-29T11:08:32;4.55;;;3.25;;
24325;SDS011;12448;45.532;5.290;2022-07-29T11:13:56;3.75;;;3.25;;
24325;SDS011;12448;45.532;5.290;2022-07-29T11:16:25;4.72;;;3.13;;
24325;SDS011;12448;45.532;5.290;2022-07-29T11:21:39;4.60;;;3.33;;
24325;SDS011;12448;45.532;5.290;2022-07-29T11:24:13;4.82;;;3.20;;
24325;SDS011;12448;45.532;5.290;2022-07-29T11:26:40;4.65;;;3.22;;
24325;SDS011;12448;45.532;5.290;2022-07-29T11:29:16;5.82;;;3.05;;
24325;SDS011;12448;45.532;5.290;2022-07-29T11:31:46;4.63;;;2.97;;
24325;SDS011;12448;45.532;5.290;2022-07-29T11:45:11;3.85;;;2.67;;
24325;SDS011;12448;45.532;5.290;2022-07-29T11:47:41;3.85;;;3.03;;
24325;SDS011;12448;45.532;5.290;2022-07-29T11:50:28;5.60;;;2.80;;
24325;SDS011;12448;45.532;5.290;2022-07-29T11:52:56;4.55;;;3.47;;
24325;SDS011;12448;45.532;5.290;2022-07-29T11:55:23;3.80;;;2.75;;
24325;SDS011;12448;45.532;5.290;2022-07-29T11:57:50;4.93;;;2.95;;
24325;SDS011;12448;45.532;5.290;2022-07-29T12:00:33;4.25;;;2.90;;
24325;SDS011;12448;45.532;5.290;2022-07-29T12:03:05;3.75;;;2.90;;
24325;SDS011;12448;45.532;5.290;2022-07-29T12:05:43;4.30;;;2.67;;
24325;SDS011;12448;45.532;5.290;2022-07-29T12:08:13;4.45;;;2.78;;
24325;SDS011;12448;45.532;5.290;2022-07-29T12:10:44;4.80;;;2.90;;
24325;SDS011;12448;45.532;5.290;2022-07-29T12:13:12;4.88;;;3.28;;
24325;SDS011;12448;45.532;5.290;2022-07-29T12:15:38;3.60;;;2.55;;
24325;SDS011;12448;45.532;5.290;2022-07-29T12:18:15;6.15;;;2.90;;
24325;SDS011;12448;45.532;5.290;2022-07-29T12:20:45;3.45;;;2.45;;
24325;SDS011;12448;45.532;5.290;2022-07-29T12:23:11;4.60;;;3.13;;
24325;SDS011;12448;45.532;5.290;2022-07-29T12:25:38;4.57;;;2.83;;
24325;SDS011;12448;45.532;5.290;2022-07-29T12:28:06;4.90;;;2.90;;
24325;SDS011;12448;45.532;5.290;2022-07-29T12:30:47;6.82;;;2.38;;
24325;SDS011;12448;45.532;5.290;2022-07-29T12:33:15;4.18;;;2.70;;
24325;SDS011;12448;45.532;5.290;2022-07-29T12:35:47;3.83;;;2.10;;
24325;SDS011;12448;45.532;5.290;2022-07-29T12:38:15;2.38;;;2.17;;
24325;SDS011;12448;45.532;5.290;2022-07-29T12:40:41;2.90;;;1.98;;
24325;SDS011;12448;45.532;5.290;2022-07-29T12:45:35;3.60;;;2.60;;
24325;SDS011;12448;45.532;5.290;2022-07-29T12:48:02;3.00;;;2.08;;
24325;SDS011;12448;45.532;5.290;2022-07-29T12:50:28;2.58;;;2.38;;
24325;SDS011;12448;45.532;5.290;2022-07-29T12:52:54;6.28;;;2.85;;
24325;SDS011;12448;45.532;5.290;2022-07-29T12:55:45;4.00;;;2.50;;
24325;SDS011;12448;45.532;5.290;2022-07-29T12:58:32;4.35;;;3.00;;
24325;SDS011;12448;45.532;5.290;2022-07-29T13:03:43;4.03;;;3.00;;
24325;SDS011;12448;45.532;5.290;2022-07-29T13:06:26;4.25;;;2.67;;
24325;SDS011;12448;45.532;5.290;2022-07-29T13:08:58;6.10;;;3.13;;
24325;SDS011;12448;45.532;5.290;2022-07-29T13:11:44;8.60;;;2.80;;
24325;SDS011;12448;45.532;5.290;2022-07-29T13:14:31;4.13;;;2.85;;
24325;SDS011;12448;45.532;5.290;2022-07-29T13:17:14;5.60;;;2.38;;
24325;SDS011;12448;45.532;5.290;2022-07-29T13:22:27;4.47;;;3.67;;
24325;SDS011;12448;45.532;5.290;2022-07-29T13:27:25;4.68;;;3.20;;
24325;SDS011;12448;45.532;5.290;2022-07-29T13:29:52;4.18;;;2.72;;
24325;SDS011;12448;45.532;5.290;2022-07-29T13:32:21;5.45;;;3.20;;
24325;SDS011;12448;45.532;5.290;2022-07-29T13:34:47;3.78;;;3.20;;
24325;SDS011;12448;45.532;5.290;2022-07-29T13:37:13;5.80;;;2.88;;
24325;SDS011;12448;45.532;5.290;2022-07-29T13:39:39;3.95;;;2.75;;
24325;SDS011;12448;45.532;5.290;2022-07-29T13:42:06;3.80;;;2.70;;
24325;SDS011;12448;45.532;5.290;2022-07-29T13:44:33;3.30;;;2.70;;
24325;SDS011;12448;45.532;5.290;2022-07-29T13:46:59;4.90;;;3.00;;
24325;SDS011;12448;45.532;5.290;2022-07-29T13:49:25;3.92;;;2.60;;
24325;SDS011;12448;45.532;5.290;2022-07-29T13:51:52;4.55;;;2.42;;
24325;SDS011;12448;45.532;5.290;2022-07-29T13:54:18;4.60;;;2.97;;
24325;SDS011;12448;45.532;5.290;2022-07-29T13:56:44;3.13;;;2.63;;
24325;SDS011;12448;45.532;5.290;2022-07-29T13:59:10;3.88;;;2.60;;
24325;SDS011;12448;45.532;5.290;2022-07-29T14:01:35;4.95;;;2.40;;
24325;SDS011;12448;45.532;5.290;2022-07-29T14:04:01;6.78;;;2.50;;
24325;SDS011;12448;45.532;5.290;2022-07-29T14:06:27;3.30;;;2.38;;
24325;SDS011;12448;45.532;5.290;2022-07-29T14:08:52;3.60;;;2.20;;
24325;SDS011;12448;45.532;5.290;2022-07-29T14:11:18;3.20;;;2.30;;
24325;SDS011;12448;45.532;5.290;2022-07-29T14:13:44;3.58;;;2.20;;
24325;SDS011;12448;45.532;5.290;2022-07-29T14:16:09;3.50;;;1.98;;
24325;SDS011;12448;45.532;5.290;2022-07-29T14:18:35;2.40;;;2.17;;
24325;SDS011;12448;45.532;5.290;2022-07-29T14:21:01;2.38;;;1.90;;
24325;SDS011;12448;45.532;5.290;2022-07-29T14:23:27;3.03;;;2.10;;
24325;SDS011;12448;45.532;5.290;2022-07-29T14:25:53;3.22;;;2.28;;
24325;SDS011;12448;45.532;5.290;2022-07-29T14:28:19;2.88;;;1.95;;
24325;SDS011;12448;45.532;5.290;2022-07-29T14:30:45;3.05;;;2.08;;
24325;SDS011;12448;45.532;5.290;2022-07-29T14:33:10;2.30;;;1.90;;
24325;SDS011;12448;45.532;5.290;2022-07-29T14:35:36;2.72;;;1.80;;
24325;SDS011;12448;45.532;5.290;2022-07-29T14:38:02;5.18;;;2.10;;
24325;SDS011;12448;45.532;5.290;2022-07-29T14:40:27;4.60;;;1.90;;
24325;SDS011;12448;45.532;5.290;2022-07-29T14:42:53;2.70;;;2.22;;
24325;SDS011;12448;45.532;5.290;2022-07-29T14:45:19;2.92;;;1.95;;
24325;SDS011;12448;45.532;5.290;2022-07-29T14:47:44;4.13;;;2.10;;
24325;SDS011;12448;45.532;5.290;2022-07-29T14:50:10;2.42;;;1.75;;
24325;SDS011;12448;45.532;5.290;2022-07-29T14:52:36;1.75;;;1.50;;
24325;SDS011;12448;45.532;5.290;2022-07-29T14:55:02;2.78;;;1.60;;
24325;SDS011;12448;45.532;5.290;2022-07-29T14:57:28;2.78;;;1.90;;
24325;SDS011;12448;45.532;5.290;2022-07-29T14:59:54;1.77;;;1.60;;
24325;SDS011;12448;45.532;5.290;2022-07-29T15:02:20;4.07;;;2.15;;
24325;SDS011;12448;45.532;5.290;2022-07-29T15:04:45;3.28;;;2.40;;
24325;SDS011;12448;45.532;5.290;2022-07-29T15:07:12;2.42;;;2.00;;
24325;SDS011;12448;45.532;5.290;2022-07-29T15:09:38;2.15;;;1.75;;
24325;SDS011;12448;45.532;5.290;2022-07-29T15:12:04;2.42;;;2.22;;
24325;SDS011;12448;45.532;5.290;2022-07-29T15:14:30;5.88;;;2.00;;
24325;SDS011;12448;45.532;5.290;2022-07-29T15:16:56;3.30;;;2.42;;
24325;SDS011;12448;45.532;5.290;2022-07-29T15:19:22;3.33;;;2.55;;
24325;SDS011;12448;45.532;5.290;2022-07-29T15:21:48;2.97;;;2.00;;
24325;SDS011;12448;45.532;5.290;2022-07-29T15:24:13;2.80;;;2.10;;
24325;SDS011;12448;45.532;5.290;2022-07-29T15:26:42;5.47;;;2.30;;
24325;SDS011;12448;45.532;5.290;2022-07-29T15:29:08;3.67;;;2.40;;
24325;SDS011;12448;45.532;5.290;2022-07-29T15:31:34;4.22;;;2.42;;
24325;SDS011;12448;45.532;5.290;2022-07-29T15:34:00;3.58;;;2.40;;
24325;SDS011;12448;45.532;5.290;2022-07-29T15:36:25;3.80;;;2.22;;
24325;SDS011;12448;45.532;5.290;2022-07-29T15:38:52;3.92;;;2.22;;
24325;SDS011;12448;45.532;5.290;2022-07-29T15:41:18;2.40;;;2.00;;
24325;SDS011;12448;45.532;5.290;2022-07-29T15:43:44;6.13;;;1.90;;
24325;SDS011;12448;45.532;5.290;2022-07-29T15:46:13;2.55;;;2.10;;
24325;SDS011;12448;45.532;5.290;2022-07-29T15:48:59;5.15;;;2.30;;